Time;durP1;ratioP1;P1;durP2;ratioP2;P2;SDS_P1;SDS_P2;PMS_P1;PMS_P2;Temp;Humidity;BMP_temperature;BMP_pressure;BME280_temperature;BME280_humidity;BME280_pressure;Samples;Min_cycle;Max_cycle;Signal;HPM_P1;HPM_P2
2024/04/17 00:02:08;;;;;;;;;;;17.10;99.90;;;;;;5434707;26;19943;-75
2024/04/17 00:04:36;;;;;;;;;;;17.00;99.90;;;;;;5435320;26;19924;-73
2024/04/17 00:07:03;;;;;;;;;;;17.00;99.90;;;;;;5451739;26;19928;-74
2024/04/17 00:09:31;;;;;;;;;;;16.90;99.90;;;;;;5451066;26;19924;-74
2024/04/17 00:11:58;;;;;;;;;;;16.50;99.90;;;;;;5458411;26;19924;-75
2024/04/17 00:14:25;;;;;;;;;;;16.30;99.90;;;;;;5470792;26;19924;-76
2024/04/17 00:16:52;;;;;;;;;;;16.40;99.90;;;;;;5419902;26;21996;-75
2024/04/17 00:19:20;;;;;;;;;;;16.60;99.90;;;;;;5472407;26;19925;-75
2024/04/17 00:21:47;;;;;;;;;;;16.70;99.90;;;;;;5461093;26;20316;-75
2024/04/17 00:24:14;;;;;;;;;;;16.80;99.90;;;;;;5420256;26;20352;-75
2024/04/17 00:26:42;;;;;;;;;;;16.90;99.90;;;;;;5462530;26;19936;-74
2024/04/17 00:29:09;;;;;;;;;;;16.80;99.90;;;;;;5466240;26;20300;-74
2024/04/17 00:31:37;;;;;;;;;;;16.80;99.90;;;;;;5455021;26;19924;-74
2024/04/17 00:34:04;;;;;;;;;;;16.80;99.90;;;;;;5478845;26;19970;-75
2024/04/17 00:36:32;;;;;;;;;;;16.80;99.90;;;;;;5455721;26;19924;-74
2024/04/17 00:38:59;;;;;;;;;;;16.90;99.90;;;;;;5475186;26;19931;-75
2024/04/17 00:41:26;;;;;;;;;;;16.90;99.90;;;;;;5457328;26;19957;-74
2024/04/17 00:43:53;;;;;;;;;;;16.90;99.90;;;;;;5454052;26;20260;-75
2024/04/17 00:46:21;;;;;;;;;;;16.90;99.90;;;;;;5454706;26;19936;-74
2024/04/17 00:48:48;;;;;;;;;;;16.90;99.90;;;;;;5454554;26;20279;-75
2024/04/17 00:51:15;;;;;;;;;;;17.00;99.90;;;;;;5478084;26;19931;-75
2024/04/17 00:53:43;;;;;;;;;;;17.00;99.90;;;;;;5461481;26;19952;-76
2024/04/17 00:56:10;;;;;;;;;;;17.00;99.90;;;;;;5468760;26;19923;-76
2024/04/17 00:58:37;;;;;;;;;;;17.00;99.90;;;;;;5468360;26;19932;-75
2024/04/17 01:01:04;;;;;;;;;;;17.00;99.90;;;;;;5479080;26;19988;-74
2024/04/17 01:03:32;;;;;;;;;;;16.90;99.90;;;;;;5481937;26;19924;-75
2024/04/17 01:05:59;;;;;;;;;;;16.90;99.90;;;;;;5449464;26;20282;-74
2024/04/17 01:08:26;;;;;;;;;;;17.00;99.90;;;;;;5461147;26;19931;-73
2024/04/17 01:10:59;;;;;;;;;;;16.90;99.90;;;;;;5473786;26;19943;-73
2024/04/17 01:13:27;;;;;;;;;;;16.90;99.90;;;;;;5461195;26;19932;-73
2024/04/17 01:15:57;;;;;;;;;;;16.90;99.90;;;;;;5454309;26;19933;-74
2024/04/17 01:18:25;;;;;;;;;;;16.90;99.90;;;;;;5453720;26;19936;-74
2024/04/17 01:20:54;;;;;;;;;;;16.90;99.90;;;;;;5454454;26;20304;-74
2024/04/17 01:23:21;;;;;;;;;;;16.90;99.90;;;;;;5450964;26;19932;-74
2024/04/17 01:25:48;;;;;;;;;;;16.90;99.90;;;;;;5454223;26;19931;-74
2024/04/17 01:28:17;;;;;;;;;;;16.60;99.90;;;;;;5453689;26;19935;-73
2024/04/17 01:30:44;;;;;;;;;;;16.70;99.90;;;;;;5453973;26;20346;-73
2024/04/17 01:33:12;;;;;;;;;;;16.70;99.90;;;;;;5472560;26;19936;-75
2024/04/17 01:35:39;;;;;;;;;;;16.80;99.90;;;;;;5456815;26;20236;-75
2024/04/17 01:38:06;;;;;;;;;;;16.70;99.90;;;;;;5454386;26;19924;-75
2024/04/17 01:40:33;;;;;;;;;;;16.80;99.90;;;;;;5477434;26;20300;-75
2024/04/17 01:43:01;;;;;;;;;;;16.80;99.90;;;;;;5468569;26;19925;-75
2024/04/17 01:45:28;;;;;;;;;;;16.80;99.90;;;;;;5455430;26;20397;-74
2024/04/17 01:47:55;;;;;;;;;;;16.80;99.90;;;;;;5463302;26;19924;-73
2024/04/17 01:50:29;;;;;;;;;;;16.80;99.90;;;;;;5454009;26;19924;-74
2024/04/17 01:52:56;;;;;;;;;;;16.80;99.90;;;;;;5461537;26;19924;-74
2024/04/17 01:55:23;;;;;;;;;;;16.80;99.90;;;;;;5429351;26;20252;-74
2024/04/17 01:57:51;;;;;;;;;;;16.80;99.90;;;;;;5453428;26;19961;-74
2024/04/17 02:00:18;;;;;;;;;;;16.60;99.90;;;;;;5469550;26;19928;-75
2024/04/17 02:02:46;;;;;;;;;;;15.80;99.90;;;;;;5469815;26;19924;-75
2024/04/17 02:05:13;;;;;;;;;;;16.00;99.90;;;;;;5424225;26;20251;-74
2024/04/17 02:07:42;;;;;;;;;;;16.20;99.90;;;;;;5481559;26;19935;-75
2024/04/17 02:10:09;;;;;;;;;;;15.80;99.90;;;;;;5460542;26;19924;-75
2024/04/17 02:12:36;;;;;;;;;;;15.80;99.90;;;;;;5453674;26;19924;-75
2024/04/17 02:15:04;;;;;;;;;;;16.00;99.90;;;;;;5421319;26;19932;-75
2024/04/17 02:17:31;;;;;;;;;;;16.20;99.90;;;;;;5428750;26;20001;-74
2024/04/17 02:19:59;;;;;;;;;;;16.30;99.90;;;;;;5454618;26;20349;-75
2024/04/17 02:22:26;;;;;;;;;;;16.20;99.90;;;;;;5453339;26;19924;-75
2024/04/17 02:24:53;;;;;;;;;;;16.20;99.90;;;;;;5420924;26;19935;-75
2024/04/17 02:27:20;;;;;;;;;;;16.30;99.90;;;;;;5470670;26;19930;-73
2024/04/17 02:29:51;;;;;;;;;;;16.30;99.90;;;;;;5455270;26;19956;-73
2024/04/17 02:32:18;;;;;;;;;;;16.40;99.90;;;;;;5420479;26;19936;-74
2024/04/17 02:34:45;;;;;;;;;;;16.50;99.90;;;;;;5452905;26;20333;-73
2024/04/17 02:37:13;;;;;;;;;;;16.50;99.90;;;;;;5423929;26;19925;-73
2024/04/17 02:39:40;;;;;;;;;;;16.50;99.90;;;;;;5440858;26;19935;-73
2024/04/17 02:42:07;;;;;;;;;;;16.50;99.90;;;;;;5454514;26;19956;-74
2024/04/17 02:44:34;;;;;;;;;;;16.40;99.90;;;;;;5421420;26;20243;-75
2024/04/17 02:47:02;;;;;;;;;;;16.50;99.90;;;;;;5475939;26;20240;-74
2024/04/17 02:49:29;;;;;;;;;;;16.50;99.90;;;;;;5452701;26;19924;-74
2024/04/17 02:51:56;;;;;;;;;;;16.40;99.90;;;;;;5444498;26;19956;-74
2024/04/17 02:54:24;;;;;;;;;;;16.40;99.90;;;;;;5421174;26;19924;-75
2024/04/17 02:56:51;;;;;;;;;;;16.30;99.90;;;;;;5452836;26;19939;-74
2024/04/17 02:59:18;;;;;;;;;;;16.40;99.90;;;;;;5452446;26;19956;-74
2024/04/17 03:01:45;;;;;;;;;;;16.30;99.90;;;;;;5467239;26;20339;-74
2024/04/17 03:04:12;;;;;;;;;;;16.10;99.90;;;;;;5429771;26;19928;-74
2024/04/17 03:06:39;;;;;;;;;;;16.10;99.90;;;;;;5452761;26;20340;-74
2024/04/17 03:09:06;;;;;;;;;;;16.30;99.90;;;;;;5453074;26;19932;-74
2024/04/17 03:11:37;;;;;;;;;;;16.30;99.90;;;;;;5421894;26;19987;-73
2024/04/17 03:14:04;;;;;;;;;;;16.40;99.90;;;;;;5474083;26;20006;-72
2024/04/17 03:16:31;;;;;;;;;;;16.50;99.90;;;;;;5452619;26;19925;-73
2024/04/17 03:18:59;;;;;;;;;;;16.50;99.90;;;;;;5444804;26;19924;-72
2024/04/17 03:21:26;;;;;;;;;;;16.40;99.90;;;;;;5452762;26;19924;-74
2024/04/17 03:23:53;;;;;;;;;;;16.50;99.90;;;;;;5470001;26;19996;-73
2024/04/17 03:26:21;;;;;;;;;;;16.50;99.90;;;;;;5480837;26;20043;-74
2024/04/17 03:28:48;;;;;;;;;;;16.50;99.90;;;;;;5471474;26;19931;-74
2024/04/17 03:31:16;;;;;;;;;;;16.50;99.90;;;;;;5456537;26;20340;-73
2024/04/17 03:33:45;;;;;;;;;;;16.50;99.90;;;;;;5456923;26;20149;-74
2024/04/17 03:36:12;;;;;;;;;;;16.30;99.90;;;;;;5488620;26;19957;-74
2024/04/17 03:38:39;;;;;;;;;;;16.30;99.90;;;;;;5458554;26;19931;-74
2024/04/17 03:41:07;;;;;;;;;;;16.30;99.90;;;;;;5488707;26;19924;-74
2024/04/17 03:43:34;;;;;;;;;;;16.40;99.90;;;;;;5480648;26;19932;-76
2024/04/17 03:46:03;;;;;;;;;;;16.50;99.90;;;;;;5452032;26;19925;-74
2024/04/17 03:48:33;;;;;;;;;;;16.50;99.90;;;;;;5452079;26;20333;-74
2024/04/17 03:51:00;;;;;;;;;;;16.30;99.90;;;;;;5451779;26;19931;-74
2024/04/17 03:53:27;;;;;;;;;;;16.40;99.90;;;;;;5451776;26;19939;-75
2024/04/17 03:55:55;;;;;;;;;;;16.50;99.90;;;;;;5450572;26;19925;-74
2024/04/17 03:58:22;;;;;;;;;;;16.50;99.90;;;;;;5463944;26;19935;-74
2024/04/17 04:00:49;;;;;;;;;;;16.50;99.90;;;;;;5478077;26;19924;-76
2024/04/17 04:03:17;;;;;;;;;;;16.50;99.90;;;;;;5510965;26;19951;-75
2024/04/17 04:05:44;;;;;;;;;;;16.50;99.90;;;;;;5488248;26;19924;-74
2024/04/17 04:08:12;;;;;;;;;;;16.20;99.90;;;;;;5488611;26;19926;-75
2024/04/17 04:10:41;;;;;;;;;;;16.30;99.90;;;;;;5455899;26;19953;-73
2024/04/17 04:13:08;;;;;;;;;;;16.40;99.90;;;;;;5487904;26;19924;-74
2024/04/17 04:15:36;;;;;;;;;;;16.50;99.90;;;;;;5488116;26;20308;-74
2024/04/17 04:18:03;;;;;;;;;;;16.10;99.90;;;;;;5487053;26;19931;-75
2024/04/17 04:20:32;;;;;;;;;;;15.60;99.90;;;;;;5489285;26;19933;-74
2024/04/17 04:23:00;;;;;;;;;;;15.60;99.90;;;;;;5487834;26;19948;-74
2024/04/17 04:25:27;;;;;;;;;;;15.90;99.90;;;;;;5456280;26;19935;-74
2024/04/17 04:27:54;;;;;;;;;;;16.00;99.90;;;;;;5448951;26;19939;-73
2024/04/17 04:30:23;;;;;;;;;;;15.40;99.90;;;;;;5498551;26;20748;-72
2024/04/17 04:32:58;;;;;;;;;;;15.20;99.90;;;;;;5499438;26;19924;-74
2024/04/17 04:35:26;;;;;;;;;;;15.50;99.90;;;;;;5484722;26;19955;-75
2024/04/17 04:37:53;;;;;;;;;;;15.70;99.90;;;;;;5473545;26;19935;-74
2024/04/17 04:40:20;;;;;;;;;;;15.90;99.90;;;;;;5468534;26;19931;-73
2024/04/17 04:42:51;;;;;;;;;;;15.90;99.90;;;;;;5459326;26;19924;-72
2024/04/17 04:45:19;;;;;;;;;;;15.60;99.90;;;;;;5486789;26;19956;-73
2024/04/17 04:47:48;;;;;;;;;;;15.70;99.90;;;;;;5487312;26;19923;-74
2024/04/17 04:50:16;;;;;;;;;;;15.90;99.90;;;;;;5498880;26;20295;-74
2024/04/17 04:52:44;;;;;;;;;;;16.00;99.90;;;;;;5499889;26;19923;-73
2024/04/17 04:55:11;;;;;;;;;;;16.10;99.90;;;;;;5499378;26;19947;-77
2024/04/17 04:57:39;;;;;;;;;;;15.80;99.90;;;;;;5458484;26;20220;-75
2024/04/17 05:00:09;;;;;;;;;;;15.50;99.90;;;;;;5487342;26;20613;-76
2024/04/17 05:02:38;;;;;;;;;;;15.60;99.90;;;;;;5467864;26;19924;-74
2024/04/17 05:05:05;;;;;;;;;;;15.80;99.90;;;;;;5494719;26;19944;-74
2024/04/17 05:07:34;;;;;;;;;;;15.50;99.90;;;;;;5492044;26;19955;-74
2024/04/17 05:10:02;;;;;;;;;;;15.50;99.90;;;;;;5486704;26;19924;-74
2024/04/17 05:12:29;;;;;;;;;;;15.30;99.90;;;;;;5493190;26;20151;-75
2024/04/17 05:14:58;;;;;;;;;;;15.30;99.90;;;;;;5486731;26;19942;-75
2024/04/17 05:17:25;;;;;;;;;;;15.20;99.90;;;;;;5472610;26;19935;-76
2024/04/17 05:19:53;;;;;;;;;;;15.20;99.90;;;;;;5490559;26;19935;-73
2024/04/17 05:22:20;;;;;;;;;;;15.20;99.90;;;;;;5494372;26;20246;-76
2024/04/17 05:24:47;;;;;;;;;;;15.30;99.90;;;;;;5488882;26;20259;-74
2024/04/17 05:27:15;;;;;;;;;;;15.40;99.90;;;;;;5472917;26;20266;-76
2024/04/17 05:29:42;;;;;;;;;;;15.60;99.90;;;;;;5480631;26;19924;-75
2024/04/17 05:32:13;;;;;;;;;;;15.60;99.90;;;;;;5495737;26;19923;-76
2024/04/17 05:34:40;;;;;;;;;;;15.80;99.90;;;;;;5507725;26;19924;-77
2024/04/17 05:37:08;;;;;;;;;;;16.00;99.90;;;;;;5458864;26;19923;-78
2024/04/17 05:39:35;;;;;;;;;;;16.10;99.90;;;;;;5478857;26;19930;-78
2024/04/17 05:42:07;;;;;;;;;;;16.10;99.90;;;;;;5492700;26;19924;-75
2024/04/17 05:44:37;;;;;;;;;;;16.20;99.90;;;;;;5514768;26;19924;-77
2024/04/17 05:47:05;;;;;;;;;;;16.20;99.90;;;;;;5463399;26;19924;-77
2024/04/17 05:49:33;;;;;;;;;;;16.20;99.90;;;;;;5488611;26;19939;-77
2024/04/17 05:52:00;;;;;;;;;;;16.20;99.90;;;;;;5468993;26;19930;-77
2024/04/17 05:54:29;;;;;;;;;;;16.30;99.90;;;;;;5481917;26;20250;-77
2024/04/17 05:56:56;;;;;;;;;;;16.20;99.90;;;;;;5489960;26;19956;-75
2024/04/17 05:59:24;;;;;;;;;;;16.10;99.90;;;;;;5489785;26;19934;-75
2024/04/17 06:01:51;;;;;;;;;;;16.30;99.90;;;;;;5458058;26;19931;-77
2024/04/17 06:04:18;;;;;;;;;;;16.40;99.90;;;;;;5461522;26;20339;-77
2024/04/17 06:06:47;;;;;;;;;;;16.50;99.90;;;;;;5471455;26;19923;-76
2024/04/17 06:09:14;;;;;;;;;;;16.50;99.90;;;;;;5495710;26;19928;-75
2024/04/17 06:11:41;;;;;;;;;;;16.50;99.90;;;;;;5490190;26;19924;-75
2024/04/17 06:14:09;;;;;;;;;;;16.60;99.90;;;;;;5460693;26;19923;-76
2024/04/17 06:16:40;;;;;;;;;;;16.70;99.90;;;;;;5476097;26;19924;-79
2024/04/17 06:19:10;;;;;;;;;;;16.70;99.90;;;;;;5499774;26;19935;-76
2024/04/17 06:21:38;;;;;;;;;;;16.70;99.90;;;;;;5491686;26;19956;-76
2024/04/17 06:24:05;;;;;;;;;;;16.80;99.90;;;;;;5469301;26;19924;-75
2024/04/17 06:26:32;;;;;;;;;;;16.80;99.90;;;;;;5481037;26;20343;-76
2024/04/17 06:28:59;;;;;;;;;;;16.80;99.90;;;;;;5486534;26;19956;-75
2024/04/17 06:31:28;;;;;;;;;;;16.80;99.90;;;;;;5486790;26;19931;-75
2024/04/17 06:33:55;;;;;;;;;;;16.80;99.90;;;;;;5455063;26;19924;-76
2024/04/17 06:36:22;;;;;;;;;;;16.70;99.90;;;;;;5487924;26;19924;-76
2024/04/17 06:38:49;;;;;;;;;;;16.80;99.90;;;;;;5489359;26;19924;-76
2024/04/17 06:41:16;;;;;;;;;;;16.80;99.90;;;;;;5518328;26;19931;-76
2024/04/17 06:43:45;;;;;;;;;;;16.80;99.90;;;;;;5490867;26;19991;-76
2024/04/17 06:46:12;;;;;;;;;;;16.80;99.90;;;;;;5489711;26;19973;-76
2024/04/17 06:48:42;;;;;;;;;;;16.80;99.90;;;;;;5489226;26;19923;-75
2024/04/17 06:51:12;;;;;;;;;;;16.80;99.90;;;;;;5489468;26;20236;-77
2024/04/17 06:53:41;;;;;;;;;;;16.80;99.90;;;;;;5457593;26;19931;-76
2024/04/17 06:56:08;;;;;;;;;;;16.90;99.90;;;;;;5457475;26;19992;-77
2024/04/17 06:58:36;;;;;;;;;;;17.00;99.90;;;;;;5466004;26;19927;-77
2024/04/17 07:01:03;;;;;;;;;;;17.00;99.90;;;;;;5513911;26;20046;-77
2024/04/17 07:03:31;;;;;;;;;;;16.60;99.90;;;;;;5457200;26;19948;-76
2024/04/17 07:06:15;;;;;;;;;;;16.60;99.90;;;;;;5491998;26;19924;-77
2024/04/17 07:08:46;;;;;;;;;;;16.80;99.90;;;;;;5456965;26;19924;-75
2024/04/17 07:11:13;;;;;;;;;;;17.00;99.90;;;;;;5489619;26;20247;-77
2024/04/17 07:13:41;;;;;;;;;;;17.10;99.90;;;;;;5488838;26;19936;-78
2024/04/17 07:16:09;;;;;;;;;;;17.10;99.90;;;;;;5489225;26;20346;-77
2024/04/17 07:18:40;;;;;;;;;;;17.20;99.90;;;;;;5428786;26;19933;-76
2024/04/17 07:21:09;;;;;;;;;;;17.20;99.90;;;;;;5458346;26;19932;-76
2024/04/17 07:23:45;;;;;;;;;;;17.00;99.90;;;;;;5457019;26;20048;-78
2024/04/17 07:26:42;;;;;;;;;;;17.10;99.90;;;;;;5463949;26;19931;-78
2024/04/17 07:29:10;;;;;;;;;;;17.10;99.90;;;;;;5488829;26;20153;-77
2024/04/17 07:31:38;;;;;;;;;;;16.90;99.90;;;;;;5489483;26;20250;-77
2024/04/17 07:34:05;;;;;;;;;;;17.00;99.90;;;;;;5456902;26;19924;-77
2024/04/17 07:36:34;;;;;;;;;;;17.10;99.90;;;;;;5488846;26;19924;-78
2024/04/17 07:39:01;;;;;;;;;;;16.80;99.90;;;;;;5488269;26;19992;-77
2024/04/17 07:41:28;;;;;;;;;;;16.90;99.90;;;;;;5490654;26;19931;-75
2024/04/17 07:43:55;;;;;;;;;;;17.00;99.90;;;;;;5457139;26;19924;-77
2024/04/17 07:46:23;;;;;;;;;;;17.20;99.90;;;;;;5489532;26;20335;-75
2024/04/17 07:48:51;;;;;;;;;;;17.30;99.90;;;;;;5503825;26;19931;-77
2024/04/17 07:51:19;;;;;;;;;;;17.40;99.90;;;;;;5469171;26;19928;-76
2024/04/17 07:53:46;;;;;;;;;;;17.40;99.90;;;;;;5525552;26;19935;-78
2024/04/17 07:56:13;;;;;;;;;;;17.40;99.90;;;;;;5500287;26;20312;-77
2024/04/17 07:58:40;;;;;;;;;;;17.50;99.90;;;;;;5508369;26;19935;-78
2024/04/17 08:01:07;;;;;;;;;;;17.50;99.90;;;;;;5502054;26;19936;-77
2024/04/17 08:03:34;;;;;;;;;;;17.70;99.90;;;;;;5502596;26;19931;-77
2024/04/17 08:06:02;;;;;;;;;;;17.90;99.90;;;;;;5498440;26;19923;-76
2024/04/17 08:08:29;;;;;;;;;;;18.10;99.90;;;;;;5508837;26;19924;-80
2024/04/17 08:10:57;;;;;;;;;;;18.20;99.90;;;;;;5503227;26;20304;-77
2024/04/17 08:13:24;;;;;;;;;;;18.30;99.90;;;;;;5519491;26;20296;-79
2024/04/17 08:15:54;;;;;;;;;;;18.20;99.90;;;;;;5455007;26;20055;-80
2024/04/17 08:18:22;;;;;;;;;;;18.30;99.90;;;;;;5493082;26;19924;-80
2024/04/17 08:20:54;;;;;;;;;;;18.40;99.90;;;;;;5492083;26;19923;-79
2024/04/17 08:23:21;;;;;;;;;;;18.40;99.90;;;;;;5513642;26;19993;-79
2024/04/17 08:25:48;;;;;;;;;;;18.50;99.90;;;;;;5485255;26;19952;-78
2024/04/17 08:28:18;;;;;;;;;;;18.50;99.90;;;;;;5486722;26;19924;-77
2024/04/17 08:30:45;;;;;;;;;;;18.50;99.90;;;;;;5478589;26;19951;-78
2024/04/17 08:33:12;;;;;;;;;;;18.60;99.90;;;;;;5486581;26;19952;-79
2024/04/17 08:35:40;;;;;;;;;;;18.70;99.90;;;;;;5466849;26;19988;-79
2024/04/17 08:38:07;;;;;;;;;;;18.70;99.90;;;;;;5506933;26;19935;-77
2024/04/17 08:40:36;;;;;;;;;;;18.60;99.90;;;;;;5492634;26;20485;-78
2024/04/17 08:43:06;;;;;;;;;;;18.70;99.80;;;;;;5498800;26;20309;-79
2024/04/17 08:45:34;;;;;;;;;;;18.70;99.40;;;;;;5488087;26;19930;-78
2024/04/17 08:48:15;;;;;;;;;;;18.70;99.30;;;;;;5495107;26;20251;-78
2024/04/17 08:50:46;;;;;;;;;;;18.90;99.50;;;;;;5497265;26;20241;-78
2024/04/17 08:53:16;;;;;;;;;;;19.20;99.00;;;;;;5511731;26;19936;-75
2024/04/17 08:55:43;;;;;;;;;;;19.10;98.20;;;;;;5512134;26;19923;-79
2024/04/17 08:58:11;;;;;;;;;;;19.10;98.40;;;;;;5496555;26;19924;-77
2024/04/17 09:00:38;;;;;;;;;;;19.00;98.80;;;;;;5501564;26;19932;-80
2024/04/17 09:03:07;;;;;;;;;;;19.20;98.70;;;;;;5499961;26;19923;-83
2024/04/17 09:05:35;;;;;;;;;;;19.40;98.10;;;;;;5504127;26;19957;-80
2024/04/17 09:08:02;;;;;;;;;;;19.60;97.70;;;;;;5515699;26;19952;-76
2024/04/17 09:10:29;;;;;;;;;;;19.50;97.50;;;;;;5511163;26;20020;-78
2024/04/17 09:12:57;;;;;;;;;;;19.60;97.10;;;;;;5466687;26;19956;-79
2024/04/17 09:15:24;;;;;;;;;;;19.60;96.60;;;;;;5515766;26;20296;-81
2024/04/17 09:17:52;;;;;;;;;;;19.60;96.90;;;;;;5459112;26;19935;-76
2024/04/17 09:20:19;;;;;;;;;;;19.50;96.20;;;;;;5499510;26;19923;-78
2024/04/17 09:22:46;;;;;;;;;;;19.50;96.80;;;;;;5515227;26;19935;-78
2024/04/17 09:25:22;;;;;;;;;;;19.60;96.20;;;;;;5505041;26;19924;-77
2024/04/17 09:27:50;;;;;;;;;;;19.70;96.00;;;;;;5461966;26;20562;-75
2024/04/17 09:30:18;;;;;;;;;;;19.70;95.90;;;;;;5503397;26;19924;-76
2024/04/17 09:32:46;;;;;;;;;;;19.90;96.20;;;;;;5512147;26;19931;-81
2024/04/17 09:35:14;;;;;;;;;;;20.00;95.80;;;;;;5466430;26;19924;-78
2024/04/17 09:37:42;;;;;;;;;;;19.90;95.50;;;;;;5515504;26;19927;-77
2024/04/17 09:40:12;;;;;;;;;;;19.70;96.30;;;;;;5508036;26;19924;-77
2024/04/17 09:42:41;;;;;;;;;;;19.40;96.30;;;;;;5519418;26;19930;-75
2024/04/17 09:45:15;;;;;;;;;;;19.50;96.20;;;;;;5499211;26;19992;-78
2024/04/17 09:47:43;;;;;;;;;;;19.60;96.30;;;;;;5497482;26;19924;-79
2024/04/17 09:50:14;;;;;;;;;;;19.50;96.30;;;;;;5486290;26;20575;-78
2024/04/17 09:52:43;;;;;;;;;;;19.40;97.00;;;;;;5469393;26;19992;-78
2024/04/17 09:55:11;;;;;;;;;;;19.40;97.30;;;;;;5500354;26;19938;-78
2024/04/17 09:57:39;;;;;;;;;;;19.20;97.40;;;;;;5503372;26;19923;-76
2024/04/17 10:00:08;;;;;;;;;;;19.20;97.60;;;;;;5497186;26;19924;-76
2024/04/17 10:02:36;;;;;;;;;;;19.30;97.40;;;;;;5458247;26;19924;-77
2024/04/17 10:05:05;;;;;;;;;;;19.30;97.00;;;;;;5490606;26;19924;-78
2024/04/17 10:07:32;;;;;;;;;;;19.30;97.20;;;;;;5496404;26;20325;-78
2024/04/17 10:10:00;;;;;;;;;;;19.60;96.80;;;;;;5506926;26;20292;-77
2024/04/17 10:12:33;;;;;;;;;;;19.90;96.70;;;;;;5494257;26;19924;-78
2024/04/17 10:15:03;;;;;;;;;;;19.90;96.40;;;;;;5498400;26;19995;-78
2024/04/17 10:17:31;;;;;;;;;;;19.70;96.30;;;;;;5496651;26;19931;-79
2024/04/17 10:20:03;;;;;;;;;;;19.80;96.70;;;;;;5497868;26;19932;-80
2024/04/17 10:22:32;;;;;;;;;;;19.70;97.20;;;;;;5497271;26;19988;-78
2024/04/17 10:25:05;;;;;;;;;;;19.60;97.20;;;;;;5494694;26;19924;-79
2024/04/17 10:27:36;;;;;;;;;;;19.40;97.50;;;;;;5501023;26;19931;-79
2024/04/17 10:30:13;;;;;;;;;;;19.30;97.80;;;;;;5502421;26;19924;-78
2024/04/17 10:32:41;;;;;;;;;;;19.20;98.00;;;;;;5507666;26;19924;-78
2024/04/17 10:35:16;;;;;;;;;;;19.40;98.10;;;;;;5488199;26;19939;-77
2024/04/17 10:37:44;;;;;;;;;;;19.50;98.10;;;;;;5501460;26;19924;-78
2024/04/17 10:40:15;;;;;;;;;;;19.40;97.90;;;;;;5502060;26;19928;-80
2024/04/17 10:42:43;;;;;;;;;;;19.50;98.10;;;;;;5518998;26;19928;-79
2024/04/17 10:45:11;;;;;;;;;;;19.50;98.10;;;;;;5476087;26;19927;-78
2024/04/17 10:47:38;;;;;;;;;;;19.60;98.50;;;;;;5482454;26;19923;-79
2024/04/17 10:50:05;;;;;;;;;;;19.50;99.30;;;;;;5505522;26;19923;-79
2024/04/17 10:52:32;;;;;;;;;;;19.50;99.70;;;;;;5505448;26;19923;-76
2024/04/17 10:55:00;;;;;;;;;;;19.40;99.90;;;;;;5499169;26;19932;-78
2024/04/17 10:57:29;;;;;;;;;;;19.60;99.90;;;;;;5498194;26;19956;-76
2024/04/17 10:59:56;;;;;;;;;;;19.70;99.90;;;;;;5507206;26;19923;-79
2024/04/17 11:02:24;;;;;;;;;;;19.10;99.90;;;;;;5457293;26;19924;-77
2024/04/17 11:04:51;;;;;;;;;;;16.80;99.60;;;;;;5456865;26;20259;-77
2024/04/17 11:07:19;;;;;;;;;;;15.60;99.90;;;;;;5492779;26;19965;-77
2024/04/17 11:09:47;;;;;;;;;;;15.20;99.90;;;;;;5433632;26;20235;-78
2024/04/17 11:12:19;;;;;;;;;;;15.20;99.90;;;;;;5470675;26;20279;-76
2024/04/17 11:14:47;;;;;;;;;;;15.10;99.90;;;;;;5465155;26;19932;-78
2024/04/17 11:17:14;;;;;;;;;;;14.80;99.90;;;;;;5490958;26;19992;-76
2024/04/17 11:19:42;;;;;;;;;;;15.10;99.90;;;;;;5457459;26;19947;-79
2024/04/17 11:22:10;;;;;;;;;;;15.20;99.90;;;;;;5454243;26;19924;-77
2024/04/17 11:24:49;;;;;;;;;;;15.20;99.90;;;;;;5487286;26;19931;-75
2024/04/17 11:27:17;;;;;;;;;;;15.20;99.90;;;;;;5457215;26;19924;-77
2024/04/17 11:29:47;;;;;;;;;;;15.30;99.90;;;;;;5511983;26;19991;-75
2024/04/17 11:32:16;;;;;;;;;;;15.30;99.90;;;;;;5502640;26;19935;-75
2024/04/17 11:34:44;;;;;;;;;;;15.30;99.90;;;;;;5456199;26;20271;-75
2024/04/17 11:37:12;;;;;;;;;;;15.70;99.90;;;;;;5501144;26;19924;-79
2024/04/17 11:39:40;;;;;;;;;;;16.10;99.00;;;;;;5493157;26;20332;-77
2024/04/17 11:42:13;;;;;;;;;;;17.10;96.70;;;;;;5470388;26;19932;-75
2024/04/17 11:44:41;;;;;;;;;;;16.50;96.60;;;;;;5462263;26;19923;-76
2024/04/17 11:47:13;;;;;;;;;;;16.40;97.90;;;;;;5468438;26;20283;-75
2024/04/17 11:49:41;;;;;;;;;;;16.00;98.90;;;;;;5522859;26;19923;-76
2024/04/17 11:52:09;;;;;;;;;;;15.90;98.90;;;;;;5484326;26;19923;-76
2024/04/17 11:54:36;;;;;;;;;;;16.00;98.40;;;;;;5504078;26;19936;-76
2024/04/17 11:57:05;;;;;;;;;;;15.80;98.10;;;;;;5480050;26;19994;-77
2024/04/17 11:59:40;;;;;;;;;;;15.70;97.60;;;;;;5495662;26;19931;-78
2024/04/17 12:02:11;;;;;;;;;;;15.60;97.10;;;;;;5473370;26;20271;-79
2024/04/17 12:04:43;;;;;;;;;;;15.50;97.30;;;;;;5493815;26;19924;-75
2024/04/17 12:07:24;;;;;;;;;;;15.10;98.30;;;;;;5474278;26;19928;-77
2024/04/17 12:09:52;;;;;;;;;;;15.20;97.90;;;;;;5490085;26;19924;-74
2024/04/17 12:12:21;;;;;;;;;;;14.90;98.40;;;;;;5500449;26;19932;-74
2024/04/17 12:14:49;;;;;;;;;;;14.70;98.80;;;;;;5467636;26;19935;-75
2024/04/17 12:17:17;;;;;;;;;;;14.50;98.80;;;;;;5499773;26;20020;-77
2024/04/17 12:19:44;;;;;;;;;;;14.60;98.70;;;;;;5492340;26;19932;-84
2024/04/17 12:22:12;;;;;;;;;;;14.50;98.20;;;;;;5504127;26;19931;-80
2024/04/17 12:27:30;;;;;;;;;;;14.30;99.90;;;;;;5497781;26;19930;-79
2024/04/17 12:29:57;;;;;;;;;;;14.40;99.90;;;;;;5461037;26;21164;-79
2024/04/17 12:32:25;;;;;;;;;;;14.20;99.90;;;;;;5470615;26;20883;-80
2024/04/17 12:34:52;;;;;;;;;;;13.70;99.90;;;;;;5511140;26;19991;-83
2024/04/17 12:37:19;;;;;;;;;;;14.00;99.90;;;;;;5485113;26;19931;-80
2024/04/17 12:39:47;;;;;;;;;;;14.10;99.90;;;;;;5473665;26;19931;-76
2024/04/17 12:42:15;;;;;;;;;;;13.90;99.90;;;;;;5508119;26;19923;-77
2024/04/17 12:44:44;;;;;;;;;;;14.10;99.90;;;;;;5464313;26;19924;-83
2024/04/17 12:47:11;;;;;;;;;;;14.20;99.90;;;;;;5471562;26;19924;-83
2024/04/17 12:49:39;;;;;;;;;;;14.20;99.90;;;;;;5453455;26;19935;-80
2024/04/17 12:52:06;;;;;;;;;;;14.60;99.90;;;;;;5464800;26;19923;-78
2024/04/17 12:54:34;;;;;;;;;;;14.60;99.90;;;;;;5463024;26;19924;-82
2024/04/17 12:57:01;;;;;;;;;;;14.80;99.90;;;;;;5458934;26;19970;-82
2024/04/17 12:59:29;;;;;;;;;;;14.80;99.90;;;;;;5470868;26;20335;-83
2024/04/17 13:01:57;;;;;;;;;;;15.10;99.90;;;;;;5496768;26;20271;-84
2024/04/17 13:04:24;;;;;;;;;;;15.10;99.90;;;;;;5498224;26;20319;-82
2024/04/17 13:07:03;;;;;;;;;;;14.50;99.90;;;;;;5461178;26;19930;-82
2024/04/17 13:09:30;;;;;;;;;;;13.90;99.90;;;;;;5442898;26;19924;-78
2024/04/17 13:12:01;;;;;;;;;;;13.30;99.90;;;;;;5478095;26;19924;-79
2024/04/17 13:14:29;;;;;;;;;;;13.30;99.90;;;;;;5474497;26;19992;-79
2024/04/17 13:16:57;;;;;;;;;;;13.30;99.90;;;;;;5454446;26;19992;-82
2024/04/17 13:19:26;;;;;;;;;;;13.40;99.90;;;;;;5465428;26;19932;-79
2024/04/17 13:21:54;;;;;;;;;;;13.60;99.90;;;;;;5480237;26;20350;-82
2024/04/17 13:24:23;;;;;;;;;;;13.90;99.90;;;;;;5486941;26;19928;-81
2024/04/17 13:26:51;;;;;;;;;;;14.20;99.90;;;;;;5490956;26;19935;-81
2024/04/17 13:29:18;;;;;;;;;;;14.70;99.90;;;;;;5463077;26;19932;-78
2024/04/17 13:31:47;;;;;;;;;;;14.80;99.90;;;;;;5457974;26;19923;-81
2024/04/17 13:34:14;;;;;;;;;;;14.60;99.90;;;;;;5459681;26;19924;-80
2024/04/17 13:36:42;;;;;;;;;;;14.50;99.90;;;;;;5457858;26;19924;-77
2024/04/17 13:39:10;;;;;;;;;;;14.50;99.90;;;;;;5456748;26;20362;-77
2024/04/17 13:41:37;;;;;;;;;;;14.40;99.90;;;;;;5504169;26;19930;-81
2024/04/17 13:44:04;;;;;;;;;;;14.10;99.90;;;;;;5490771;26;19931;-79
2024/04/17 13:46:32;;;;;;;;;;;14.00;99.90;;;;;;5481449;26;19924;-82
2024/04/17 13:49:00;;;;;;;;;;;14.10;99.90;;;;;;5494838;26;19927;-82
2024/04/17 13:51:28;;;;;;;;;;;14.10;99.90;;;;;;5502080;26;19924;-82
2024/04/17 13:53:55;;;;;;;;;;;14.10;99.90;;;;;;5462562;26;19948;-81
2024/04/17 13:56:26;;;;;;;;;;;14.00;99.90;;;;;;5482770;26;20267;-83
2024/04/17 13:58:57;;;;;;;;;;;14.00;99.90;;;;;;5503991;26;19931;-80
2024/04/17 14:01:28;;;;;;;;;;;13.90;99.90;;;;;;5451613;26;19924;-81
2024/04/17 14:03:55;;;;;;;;;;;13.90;99.90;;;;;;5452707;26;19956;-79
2024/04/17 14:06:23;;;;;;;;;;;13.80;99.90;;;;;;5477145;26;19968;-77
2024/04/17 14:08:50;;;;;;;;;;;13.70;99.90;;;;;;5507472;26;19923;-78
2024/04/17 14:11:17;;;;;;;;;;;13.60;99.90;;;;;;5489790;26;19931;-81
2024/04/17 14:13:46;;;;;;;;;;;13.80;99.90;;;;;;5514263;26;19928;-77
2024/04/17 14:16:14;;;;;;;;;;;13.60;99.90;;;;;;5491904;26;19930;-78
2024/04/17 14:18:45;;;;;;;;;;;14.10;99.90;;;;;;5479339;26;20280;-81
2024/04/17 14:21:15;;;;;;;;;;;16.10;99.90;;;;;;5492881;26;20347;-79
2024/04/17 14:23:43;;;;;;;;;;;16.70;99.30;;;;;;5472510;26;19923;-80
2024/04/17 14:26:11;;;;;;;;;;;17.20;97.20;;;;;;5498614;26;19934;-81